Time;durP1;ratioP1;P1;durP2;ratioP2;P2;SDS_P1;SDS_P2;PMS_P1;PMS_P2;Temp;Humidity;BMP_temperature;BMP_pressure;BME280_temperature;BME280_humidity;BME280_pressure;Samples;Min_cycle;Max_cycle;Signal;HPM_P1;HPM_P2
2022/02/15 00:01:01;;;;;;;;;;;5.80;78.10;;;;;;5087471;28;20345;-76
2022/02/15 00:03:27;;;;;;;;;;;5.80;78.80;;;;;;5088863;28;20027;-76
2022/02/15 00:05:52;;;;;;;;;;;5.80;79.20;;;;;;5087623;28;19999;-76
2022/02/15 00:08:18;;;;;;;;;;;5.70;78.60;;;;;;5089068;28;19908;-76
2022/02/15 00:10:45;;;;;;;;;;;5.50;79.10;;;;;;5085841;28;19908;-76
2022/02/15 00:13:12;;;;;;;;;;;5.30;79.60;;;;;;5073727;28;20021;-76
2022/02/15 00:15:37;;;;;;;;;;;5.10;80.30;;;;;;5075253;28;20011;-76
2022/02/15 00:18:03;;;;;;;;;;;5.00;80.80;;;;;;5074117;28;19952;-76
2022/02/15 00:20:29;;;;;;;;;;;4.80;81.80;;;;;;5073757;28;20019;-76
2022/02/15 00:22:54;;;;;;;;;;;4.80;82.70;;;;;;5073641;28;20396;-76
2022/02/15 00:25:21;;;;;;;;;;;4.80;82.80;;;;;;5073674;28;19916;-76
2022/02/15 00:27:47;;;;;;;;;;;4.70;83.00;;;;;;5073656;28;19995;-75
2022/02/15 00:30:13;;;;;;;;;;;4.60;83.50;;;;;;5073785;28;20364;-76
2022/02/15 00:32:41;;;;;;;;;;;4.50;84.00;;;;;;5073488;28;19915;-76
2022/02/15 00:35:06;;;;;;;;;;;4.50;84.10;;;;;;5073887;28;19908;-76
2022/02/15 00:37:32;;;;;;;;;;;4.30;84.60;;;;;;5073659;28;20398;-75
2022/02/15 00:39:58;;;;;;;;;;;4.30;85.00;;;;;;5074642;28;20451;-76
2022/02/15 00:42:23;;;;;;;;;;;4.20;85.70;;;;;;5056663;28;19908;-76
2022/02/15 00:44:49;;;;;;;;;;;4.20;86.20;;;;;;5073594;28;19930;-75
2022/02/15 00:47:16;;;;;;;;;;;4.20;86.70;;;;;;5074544;28;19908;-75
2022/02/15 00:49:41;;;;;;;;;;;4.20;86.30;;;;;;5074492;28;19908;-76
2022/02/15 00:52:07;;;;;;;;;;;4.20;87.00;;;;;;5056611;28;19999;-76
2022/02/15 00:54:33;;;;;;;;;;;4.20;87.10;;;;;;5073012;28;19908;-76
2022/02/15 00:56:59;;;;;;;;;;;4.40;88.00;;;;;;5074359;28;19920;-76
2022/02/15 00:59:24;;;;;;;;;;;4.40;86.80;;;;;;5074242;28;19917;-76
2022/02/15 01:01:50;;;;;;;;;;;4.40;87.20;;;;;;5073285;28;19951;-76
2022/02/15 01:04:16;;;;;;;;;;;4.30;86.90;;;;;;5056320;28;19909;-76
2022/02/15 01:06:41;;;;;;;;;;;4.40;88.30;;;;;;5072859;28;19908;-76
2022/02/15 01:09:07;;;;;;;;;;;4.60;88.60;;;;;;5074246;28;19913;-76
2022/02/15 01:11:33;;;;;;;;;;;4.70;88.80;;;;;;5072892;28;20386;-75
2022/02/15 01:13:58;;;;;;;;;;;4.80;86.60;;;;;;5072882;28;19974;-76
2022/02/15 01:16:25;;;;;;;;;;;4.80;87.40;;;;;;5072448;28;19919;-76
2022/02/15 01:18:50;;;;;;;;;;;4.70;87.90;;;;;;5072884;28;20003;-76
2022/02/15 01:21:16;;;;;;;;;;;4.60;87.50;;;;;;5056000;28;19952;-76
2022/02/15 01:23:43;;;;;;;;;;;4.60;89.40;;;;;;5071475;28;20283;-76
2022/02/15 01:26:09;;;;;;;;;;;4.70;90.70;;;;;;5072416;28;19908;-76
2022/02/15 01:28:34;;;;;;;;;;;4.70;90.60;;;;;;5072297;28;19919;-76
2022/02/15 01:31:03;;;;;;;;;;;4.70;91.00;;;;;;5072520;28;19909;-76
2022/02/15 01:33:29;;;;;;;;;;;4.90;91.60;;;;;;5073596;28;19955;-76
2022/02/15 01:35:55;;;;;;;;;;;4.90;91.20;;;;;;5072073;28;19908;-75
2022/02/15 01:38:20;;;;;;;;;;;5.00;91.50;;;;;;5072631;28;19910;-76
2022/02/15 01:40:46;;;;;;;;;;;5.10;92.30;;;;;;5055692;28;19912;-76
2022/02/15 01:43:12;;;;;;;;;;;5.00;92.20;;;;;;5073521;28;19908;-76
2022/02/15 01:45:37;;;;;;;;;;;4.90;92.70;;;;;;5073332;28;19942;-76
2022/02/15 01:48:03;;;;;;;;;;;5.00;94.10;;;;;;5073410;28;19952;-76
2022/02/15 01:50:29;;;;;;;;;;;5.10;92.80;;;;;;5055715;28;19908;-76
2022/02/15 01:52:54;;;;;;;;;;;4.90;93.20;;;;;;5072036;28;20338;-76
2022/02/15 01:55:20;;;;;;;;;;;4.90;95.20;;;;;;5072065;28;19909;-76
2022/02/15 01:57:46;;;;;;;;;;;5.10;95.60;;;;;;5072087;28;19913;-76
2022/02/15 02:00:16;;;;;;;;;;;5.00;95.20;;;;;;5071839;28;19916;-76
2022/02/15 02:02:42;;;;;;;;;;;5.10;95.60;;;;;;5073146;28;19912;-76
2022/02/15 02:07:52;;;;;;;;;;;5.10;98.10;;;;;;5073065;28;19909;-76
2022/02/15 02:10:17;;;;;;;;;;;5.30;98.30;;;;;;5071843;28;19919;-76
2022/02/15 02:12:43;;;;;;;;;;;5.40;97.30;;;;;;5072888;28;19908;-76
2022/02/15 02:15:14;;;;;;;;;;;5.50;97.40;;;;;;5071548;28;19962;-76
2022/02/15 02:17:39;;;;;;;;;;;5.60;96.90;;;;;;5055054;28;20295;-76
2022/02/15 02:20:05;;;;;;;;;;;5.60;96.20;;;;;;5072986;28;19920;-76
2022/02/15 02:22:31;;;;;;;;;;;5.60;95.90;;;;;;5071376;28;19951;-76
2022/02/15 02:24:58;;;;;;;;;;;5.50;96.90;;;;;;5072712;28;20360;-76
2022/02/15 02:27:25;;;;;;;;;;;5.60;96.90;;;;;;5072497;28;19995;-76
2022/02/15 02:29:51;;;;;;;;;;;5.60;96.80;;;;;;5054803;28;19961;-76
2022/02/15 02:32:18;;;;;;;;;;;5.50;96.60;;;;;;5071431;28;19958;-76
2022/02/15 02:34:43;;;;;;;;;;;5.50;99.00;;;;;;5071267;28;19916;-76
2022/02/15 02:37:09;;;;;;;;;;;5.50;99.00;;;;;;5071219;28;20360;-76
2022/02/15 02:39:35;;;;;;;;;;;5.40;99.80;;;;;;5072460;28;19982;-76
2022/02/15 02:42:00;;;;;;;;;;;5.40;99.90;;;;;;5071500;28;20392;-76
2022/02/15 02:44:26;;;;;;;;;;;5.50;99.90;;;;;;5054563;28;20007;-76
2022/02/15 02:46:51;;;;;;;;;;;5.60;99.90;;;;;;5072340;28;19950;-76
2022/02/15 02:49:17;;;;;;;;;;;5.60;99.90;;;;;;5072561;28;20452;-76
2022/02/15 02:51:43;;;;;;;;;;;5.50;99.90;;;;;;5071471;28;19909;-76
2022/02/15 02:54:08;;;;;;;;;;;5.60;99.90;;;;;;5072343;28;19909;-76
2022/02/15 02:56:34;;;;;;;;;;;5.70;99.90;;;;;;5072403;28;20296;-76
2022/02/15 02:58:59;;;;;;;;;;;5.70;99.90;;;;;;5071460;28;20007;-76
2022/02/15 03:01:25;;;;;;;;;;;5.70;99.90;;;;;;5071396;28;20363;-76
2022/02/15 03:03:51;;;;;;;;;;;5.70;99.90;;;;;;5070957;28;19920;-76
2022/02/15 03:06:17;;;;;;;;;;;5.80;99.90;;;;;;5054162;28;19909;-76
2022/02/15 03:08:43;;;;;;;;;;;5.80;99.90;;;;;;5072291;28;20026;-76
2022/02/15 03:11:08;;;;;;;;;;;5.90;99.90;;;;;;5054313;28;19908;-76
2022/02/15 03:13:34;;;;;;;;;;;5.70;99.90;;;;;;5071083;28;19915;-76
2022/02/15 03:15:59;;;;;;;;;;;5.60;99.90;;;;;;5071052;28;20046;-76
2022/02/15 03:18:25;;;;;;;;;;;5.50;99.90;;;;;;5054371;28;19912;-75
2022/02/15 03:20:51;;;;;;;;;;;5.30;99.90;;;;;;5054133;28;19966;-76
2022/02/15 03:23:16;;;;;;;;;;;5.30;99.90;;;;;;5071137;28;20430;-75
2022/02/15 03:25:42;;;;;;;;;;;5.30;99.90;;;;;;5072074;28;19909;-76
2022/02/15 03:28:07;;;;;;;;;;;5.30;99.90;;;;;;5070501;28;19935;-76
2022/02/15 03:30:33;;;;;;;;;;;5.30;99.90;;;;;;5072147;28;19954;-76
2022/02/15 03:32:59;;;;;;;;;;;5.30;99.90;;;;;;5070636;28;19912;-76
2022/02/15 03:35:24;;;;;;;;;;;5.20;99.90;;;;;;5072063;28;19916;-76
2022/02/15 03:37:50;;;;;;;;;;;5.20;99.90;;;;;;5071966;28;19995;-76
2022/02/15 03:40:16;;;;;;;;;;;5.10;99.90;;;;;;5070586;28;20004;-76
2022/02/15 03:45:26;;;;;;;;;;;5.10;99.90;;;;;;5070350;28;20067;-76
2022/02/15 03:47:53;;;;;;;;;;;5.10;99.90;;;;;;5073767;28;19999;-75
2022/02/15 03:50:18;;;;;;;;;;;5.10;99.90;;;;;;5057734;28;20280;-76
2022/02/15 03:52:44;;;;;;;;;;;5.00;99.90;;;;;;5074348;28;19909;-75
2022/02/15 03:55:09;;;;;;;;;;;4.90;99.90;;;;;;5057776;28;20368;-76
2022/02/15 03:57:35;;;;;;;;;;;4.80;99.90;;;;;;5074363;28;20284;-76
2022/02/15 04:00:04;;;;;;;;;;;4.80;99.90;;;;;;5074098;28;20387;-76
2022/02/15 04:02:29;;;;;;;;;;;5.00;99.90;;;;;;5075378;28;19965;-76
2022/02/15 04:04:55;;;;;;;;;;;5.00;99.90;;;;;;5074438;28;19908;-76
2022/02/15 04:07:21;;;;;;;;;;;4.90;99.90;;;;;;5073962;28;20054;-76
2022/02/15 04:09:46;;;;;;;;;;;5.10;99.90;;;;;;5075336;28;19909;-76
2022/02/15 04:12:12;;;;;;;;;;;4.90;99.90;;;;;;5074015;28;19916;-75
2022/02/15 04:14:37;;;;;;;;;;;4.90;99.90;;;;;;5057413;28;19916;-76
2022/02/15 04:17:04;;;;;;;;;;;4.90;99.90;;;;;;5073889;28;19908;-76
2022/02/15 04:19:29;;;;;;;;;;;5.00;99.90;;;;;;5073982;28;19912;-76
2022/02/15 04:21:56;;;;;;;;;;;5.00;99.90;;;;;;5075093;28;19930;-76
2022/02/15 04:24:22;;;;;;;;;;;4.90;99.90;;;;;;5075116;28;19909;-75
2022/02/15 04:26:48;;;;;;;;;;;4.80;99.90;;;;;;5056704;28;19912;-75
2022/02/15 04:29:14;;;;;;;;;;;4.70;99.90;;;;;;5075044;28;20418;-75
2022/02/15 04:31:40;;;;;;;;;;;4.70;99.90;;;;;;5057270;28;20407;-76
2022/02/15 04:34:05;;;;;;;;;;;4.60;99.90;;;;;;5075042;28;19916;-76
2022/02/15 04:36:31;;;;;;;;;;;4.70;99.90;;;;;;5073451;28;19909;-76
2022/02/15 04:38:57;;;;;;;;;;;4.70;99.90;;;;;;5073729;28;19967;-76
2022/02/15 04:41:22;;;;;;;;;;;4.70;99.90;;;;;;5056812;28;19976;-75
2022/02/15 04:43:48;;;;;;;;;;;4.80;99.90;;;;;;5073695;28;20260;-76
2022/02/15 04:46:14;;;;;;;;;;;4.60;99.90;;;;;;5074960;28;19919;-75
2022/02/15 04:48:39;;;;;;;;;;;4.70;99.90;;;;;;5073575;28;19948;-76
2022/02/15 04:51:05;;;;;;;;;;;4.60;99.90;;;;;;5056555;28;19970;-75
2022/02/15 04:53:30;;;;;;;;;;;4.60;99.90;;;;;;5073228;28;19958;-76
2022/02/15 04:55:57;;;;;;;;;;;4.70;99.90;;;;;;5074492;28;19962;-76
2022/02/15 04:58:23;;;;;;;;;;;4.50;99.90;;;;;;5073115;28;19998;-76
2022/02/15 05:00:49;;;;;;;;;;;4.50;99.90;;;;;;5056452;28;19959;-75
2022/02/15 05:03:15;;;;;;;;;;;4.30;99.90;;;;;;5073208;28;19915;-76
2022/02/15 05:05:40;;;;;;;;;;;4.40;99.90;;;;;;5056214;28;20003;-75
2022/02/15 05:08:06;;;;;;;;;;;4.40;99.90;;;;;;5073211;28;20324;-76
2022/02/15 05:10:32;;;;;;;;;;;4.40;99.90;;;;;;5073351;28;20302;-75
2022/02/15 05:12:57;;;;;;;;;;;4.30;99.90;;;;;;5073006;28;20348;-75
2022/02/15 05:15:23;;;;;;;;;;;4.30;99.90;;;;;;5073193;28;19934;-75
2022/02/15 05:17:48;;;;;;;;;;;4.20;99.90;;;;;;5056166;28;20360;-75
2022/02/15 05:20:16;;;;;;;;;;;4.30;99.90;;;;;;5074100;28;19916;-76
2022/02/15 05:22:42;;;;;;;;;;;4.20;99.90;;;;;;5073860;28;20376;-75
2022/02/15 05:25:10;;;;;;;;;;;4.10;99.90;;;;;;5072687;28;19912;-75
2022/02/15 05:27:36;;;;;;;;;;;4.10;99.90;;;;;;5072625;28;19916;-75
2022/02/15 05:30:01;;;;;;;;;;;4.20;99.90;;;;;;5072705;28;19909;-76
2022/02/15 05:32:27;;;;;;;;;;;4.20;99.90;;;;;;5055835;28;19919;-75
2022/02/15 05:34:53;;;;;;;;;;;4.40;99.90;;;;;;5055829;28;19908;-75
2022/02/15 05:37:19;;;;;;;;;;;4.30;99.90;;;;;;5073604;28;19912;-75
2022/02/15 05:39:44;;;;;;;;;;;4.20;99.90;;;;;;5055832;28;19913;-76
2022/02/15 05:42:10;;;;;;;;;;;4.20;99.90;;;;;;5072464;28;19916;-76
2022/02/15 05:44:36;;;;;;;;;;;4.10;99.90;;;;;;5073367;28;20380;-76
2022/02/15 05:47:01;;;;;;;;;;;4.10;99.90;;;;;;5055252;28;19915;-75
2022/02/15 05:49:27;;;;;;;;;;;4.00;99.90;;;;;;5073364;28;19912;-75
2022/02/15 05:51:53;;;;;;;;;;;4.00;99.90;;;;;;5055568;28;20261;-75
2022/02/15 05:54:18;;;;;;;;;;;4.00;99.90;;;;;;5072175;28;19908;-75
2022/02/15 05:56:44;;;;;;;;;;;4.00;99.90;;;;;;5055339;28;20390;-75
2022/02/15 05:59:10;;;;;;;;;;;4.10;99.90;;;;;;5073229;28;19915;-76
2022/02/15 06:01:36;;;;;;;;;;;4.10;99.90;;;;;;5062448;22;20015;-73
2022/02/15 06:04:10;;;;;;;;;;;4.20;99.90;;;;;;5032377;28;19955;-73
2022/02/15 06:06:36;;;;;;;;;;;4.10;99.90;;;;;;5032925;28;20406;-73
2022/02/15 06:09:02;;;;;;;;;;;4.20;99.90;;;;;;5032455;28;19909;-73
2022/02/15 06:11:28;;;;;;;;;;;4.30;99.90;;;;;;5031640;28;19963;-73
2022/02/15 06:13:55;;;;;;;;;;;4.40;99.90;;;;;;5032827;28;19909;-73
2022/02/15 06:16:24;;;;;;;;;;;4.40;99.90;;;;;;5032738;28;19920;-73
2022/02/15 06:18:50;;;;;;;;;;;4.20;99.90;;;;;;5032799;28;19932;-73
2022/02/15 06:21:16;;;;;;;;;;;4.10;99.90;;;;;;5031473;28;20364;-73
2022/02/15 06:23:41;;;;;;;;;;;4.20;99.90;;;;;;5031452;28;19936;-73
2022/02/15 06:26:07;;;;;;;;;;;4.40;99.90;;;;;;5031226;28;19928;-73
2022/02/15 06:28:32;;;;;;;;;;;4.30;99.90;;;;;;5032668;28;19909;-73
2022/02/15 06:30:58;;;;;;;;;;;4.10;99.90;;;;;;5032756;28;20284;-73
2022/02/15 06:33:24;;;;;;;;;;;4.00;99.90;;;;;;5032264;28;19916;-73
2022/02/15 06:35:50;;;;;;;;;;;3.80;99.90;;;;;;5032334;28;20345;-73
2022/02/15 06:38:15;;;;;;;;;;;3.80;99.90;;;;;;5031159;28;19913;-73
2022/02/15 06:40:41;;;;;;;;;;;3.80;99.90;;;;;;5032293;28;19920;-73
2022/02/15 06:43:07;;;;;;;;;;;3.80;99.90;;;;;;5032230;28;19909;-73
2022/02/15 06:45:33;;;;;;;;;;;3.90;99.90;;;;;;5032153;28;19909;-73
2022/02/15 06:47:58;;;;;;;;;;;4.00;99.90;;;;;;5031965;28;19920;-73
2022/02/15 06:50:25;;;;;;;;;;;4.00;99.90;;;;;;5030245;28;19909;-73
2022/02/15 06:52:51;;;;;;;;;;;3.90;99.90;;;;;;5030541;28;19917;-73
2022/02/15 06:55:17;;;;;;;;;;;4.00;99.90;;;;;;5038554;28;19924;-73
2022/02/15 06:57:43;;;;;;;;;;;4.00;99.90;;;;;;5034198;28;19921;-73
2022/02/15 07:00:09;;;;;;;;;;;3.90;99.90;;;;;;5033237;28;20015;-73
2022/02/15 07:02:35;;;;;;;;;;;3.80;99.90;;;;;;5029944;28;20001;-73
2022/02/15 07:05:02;;;;;;;;;;;3.70;99.90;;;;;;5032283;28;19913;-73
2022/02/15 07:07:27;;;;;;;;;;;3.80;99.90;;;;;;5031607;28;20345;-73
2022/02/15 07:09:53;;;;;;;;;;;3.80;99.90;;;;;;5031964;28;19916;-73
2022/02/15 07:12:20;;;;;;;;;;;3.90;99.90;;;;;;5036540;28;20390;-73
2022/02/15 07:14:45;;;;;;;;;;;3.70;99.90;;;;;;5051808;28;20277;-74
2022/02/15 07:17:11;;;;;;;;;;;3.70;99.90;;;;;;5050596;28;20007;-73
2022/02/15 07:19:37;;;;;;;;;;;3.60;99.90;;;;;;5051630;28;19920;-74
2022/02/15 07:22:03;;;;;;;;;;;3.80;99.90;;;;;;5052321;28;19909;-74
2022/02/15 07:24:29;;;;;;;;;;;3.90;99.90;;;;;;5036326;28;19913;-74
2022/02/15 07:26:55;;;;;;;;;;;3.90;99.90;;;;;;5033187;28;19909;-74
2022/02/15 07:29:20;;;;;;;;;;;3.80;99.90;;;;;;5035961;28;20004;-74
2022/02/15 07:31:47;;;;;;;;;;;3.80;99.90;;;;;;5034032;28;21549;-74
2022/02/15 07:34:13;;;;;;;;;;;3.90;99.90;;;;;;5044849;28;19910;-73
2022/02/15 07:36:40;;;;;;;;;;;4.00;99.90;;;;;;5016031;28;19910;-73
2022/02/15 07:39:05;;;;;;;;;;;3.90;99.90;;;;;;5033867;28;19909;-74
2022/02/15 07:41:31;;;;;;;;;;;4.00;99.90;;;;;;5037041;28;19975;-74
2022/02/15 07:43:57;;;;;;;;;;;4.10;99.90;;;;;;5043106;28;19909;-74
2022/02/15 07:46:23;;;;;;;;;;;4.10;99.90;;;;;;5040261;28;19967;-74
2022/02/15 07:48:49;;;;;;;;;;;4.00;99.90;;;;;;5032000;28;19914;-74
2022/02/15 07:51:18;;;;;;;;;;;3.90;99.90;;;;;;5040410;28;19975;-74
2022/02/15 07:53:44;;;;;;;;;;;3.80;99.90;;;;;;5034703;28;19956;-74
2022/02/15 07:56:10;;;;;;;;;;;3.70;99.90;;;;;;5032459;28;19956;-74
2022/02/15 07:58:36;;;;;;;;;;;3.70;99.90;;;;;;5035838;28;19913;-74
2022/02/15 08:01:02;;;;;;;;;;;3.80;99.90;;;;;;5033825;28;19992;-75
2022/02/15 08:03:27;;;;;;;;;;;3.80;99.90;;;;;;5036063;28;19924;-76
2022/02/15 08:05:53;;;;;;;;;;;3.90;99.90;;;;;;5034807;28;20357;-74
2022/02/15 08:08:19;;;;;;;;;;;3.80;99.90;;;;;;5033767;28;19916;-73
2022/02/15 08:10:46;;;;;;;;;;;3.90;99.90;;;;;;5034631;28;19909;-74
2022/02/15 08:13:18;;;;;;;;;;;3.90;99.90;;;;;;5034486;28;19916;-74
2022/02/15 08:15:49;;;;;;;;;;;4.00;99.90;;;;;;5034353;28;20011;-74
2022/02/15 08:18:15;;;;;;;;;;;3.90;99.90;;;;;;5034812;28;19913;-74
2022/02/15 08:20:40;;;;;;;;;;;4.00;99.90;;;;;;5034801;28;20007;-74
2022/02/15 08:23:06;;;;;;;;;;;4.00;99.90;;;;;;5032870;28;20007;-73
2022/02/15 08:25:34;;;;;;;;;;;4.10;99.90;;;;;;5033164;28;19917;-73
2022/02/15 08:27:59;;;;;;;;;;;4.00;99.90;;;;;;5033574;28;19909;-75
2022/02/15 08:30:25;;;;;;;;;;;4.10;99.90;;;;;;5032413;28;19916;-75
2022/02/15 08:32:51;;;;;;;;;;;4.10;99.90;;;;;;5032690;28;20308;-75
2022/02/15 08:35:17;;;;;;;;;;;4.20;99.90;;;;;;5033537;28;20004;-75
2022/02/15 08:37:43;;;;;;;;;;;4.10;99.90;;;;;;5032531;28;19980;-75
2022/02/15 08:40:12;;;;;;;;;;;4.10;99.90;;;;;;5033170;28;19917;-75
2022/02/15 08:42:38;;;;;;;;;;;4.20;99.90;;;;;;5033050;28;19978;-75
2022/02/15 08:45:07;;;;;;;;;;;4.30;99.90;;;;;;5032571;28;19909;-74
2022/02/15 08:47:33;;;;;;;;;;;4.20;99.90;;;;;;5033212;28;19909;-73
2022/02/15 08:49:59;;;;;;;;;;;4.30;99.90;;;;;;5015867;28;19975;-73
2022/02/15 08:52:26;;;;;;;;;;;4.40;99.90;;;;;;5033046;28;20284;-73
2022/02/15 08:54:53;;;;;;;;;;;4.30;99.90;;;;;;5032229;28;19909;-73
2022/02/15 08:57:19;;;;;;;;;;;4.40;99.90;;;;;;5032004;28;19909;-73
2022/02/15 08:59:45;;;;;;;;;;;4.50;99.90;;;;;;5032684;28;19921;-74
2022/02/15 09:02:10;;;;;;;;;;;4.50;99.90;;;;;;5032378;28;20368;-73
2022/02/15 09:04:37;;;;;;;;;;;4.40;99.90;;;;;;5036980;28;19913;-73
2022/02/15 09:07:08;;;;;;;;;;;4.40;99.90;;;;;;5031874;28;19909;-73
2022/02/15 09:09:34;;;;;;;;;;;4.50;99.90;;;;;;5032556;28;19909;-73
2022/02/15 09:12:01;;;;;;;;;;;4.50;99.90;;;;;;5033091;28;19915;-73
2022/02/15 09:14:29;;;;;;;;;;;4.40;99.90;;;;;;5032117;28;19909;-73
2022/02/15 09:16:55;;;;;;;;;;;4.40;99.90;;;;;;5031821;28;19909;-73
2022/02/15 09:19:21;;;;;;;;;;;4.50;99.90;;;;;;5032124;28;20004;-73
2022/02/15 09:21:49;;;;;;;;;;;4.50;99.90;;;;;;5025590;28;20004;-73
2022/02/15 09:24:16;;;;;;;;;;;4.50;99.90;;;;;;5030198;28;20369;-73
2022/02/15 09:26:41;;;;;;;;;;;4.40;99.90;;;;;;5014550;28;20155;-73
2022/02/15 09:29:08;;;;;;;;;;;4.50;99.90;;;;;;5031887;28;19909;-73
2022/02/15 09:31:37;;;;;;;;;;;4.60;99.90;;;;;;5030887;28;19916;-74
2022/02/15 09:34:04;;;;;;;;;;;4.70;99.90;;;;;;5027520;28;19913;-73
2022/02/15 09:36:29;;;;;;;;;;;4.70;99.90;;;;;;5031514;28;19909;-73
2022/02/15 09:38:55;;;;;;;;;;;4.70;99.90;;;;;;5030187;28;19924;-73
2022/02/15 09:41:21;;;;;;;;;;;4.80;99.90;;;;;;5034209;28;19917;-73
2022/02/15 09:43:46;;;;;;;;;;;4.90;99.90;;;;;;5030304;28;19917;-73
2022/02/15 09:46:13;;;;;;;;;;;4.90;99.90;;;;;;5030498;28;20128;-75
2022/02/15 09:48:39;;;;;;;;;;;5.00;99.90;;;;;;5029912;28;19909;-73
2022/02/15 09:51:05;;;;;;;;;;;5.00;99.90;;;;;;5031964;28;19909;-74
2022/02/15 09:53:31;;;;;;;;;;;5.00;99.90;;;;;;5031656;28;19913;-73
2022/02/15 09:55:56;;;;;;;;;;;5.00;99.90;;;;;;5031609;28;19910;-73
2022/02/15 09:58:22;;;;;;;;;;;5.10;99.90;;;;;;5030930;28;19913;-73
2022/02/15 10:00:48;;;;;;;;;;;5.10;99.90;;;;;;5031522;28;19917;-73
2022/02/15 10:03:15;;;;;;;;;;;5.10;99.90;;;;;;5030871;28;20377;-73
2022/02/15 10:05:46;;;;;;;;;;;4.90;99.90;;;;;;5031474;28;20354;-73
2022/02/15 10:08:12;;;;;;;;;;;4.80;99.90;;;;;;5012866;28;19963;-73
2022/02/15 10:10:38;;;;;;;;;;;4.80;99.90;;;;;;5030933;28;19944;-73
2022/02/15 10:13:04;;;;;;;;;;;4.80;99.90;;;;;;5029262;28;20361;-73
2022/02/15 10:15:34;;;;;;;;;;;4.90;99.90;;;;;;5029677;28;19979;-73
2022/02/15 10:18:07;;;;;;;;;;;5.10;99.90;;;;;;5031619;28;20003;-73
2022/02/15 10:20:33;;;;;;;;;;;5.10;99.90;;;;;;5029277;28;19913;-72
2022/02/15 10:23:19;;;;;;;;;;;5.20;99.90;;;;;;5031767;28;19963;-73
2022/02/15 10:25:45;;;;;;;;;;;5.20;99.90;;;;;;5031193;28;19925;-73
2022/02/15 10:28:12;;;;;;;;;;;5.10;99.90;;;;;;5028946;28;20008;-72
2022/02/15 10:30:42;;;;;;;;;;;5.10;99.90;;;;;;5029571;28;19909;-72
2022/02/15 10:33:07;;;;;;;;;;;5.00;99.90;;;;;;5026656;28;20369;-73
2022/02/15 10:35:33;;;;;;;;;;;4.90;99.90;;;;;;5030663;28;19909;-72
2022/02/15 10:37:59;;;;;;;;;;;5.00;99.90;;;;;;5030673;28;20443;-73
2022/02/15 10:40:25;;;;;;;;;;;4.90;99.90;;;;;;5029262;28;20016;-72
2022/02/15 10:42:54;;;;;;;;;;;5.00;99.90;;;;;;5030309;28;19996;-74
2022/02/15 10:45:19;;;;;;;;;;;5.00;99.90;;;;;;5030213;28;20331;-73
2022/02/15 10:47:46;;;;;;;;;;;5.10;99.90;;;;;;5030950;28;19909;-73
2022/02/15 10:50:13;;;;;;;;;;;5.20;99.90;;;;;;5030936;28;20360;-73
2022/02/15 10:52:39;;;;;;;;;;;5.10;99.90;;;;;;5030947;28;19924;-74
2022/02/15 10:55:05;;;;;;;;;;;5.10;99.90;;;;;;5030115;28;19909;-73
2022/02/15 10:57:31;;;;;;;;;;;5.40;99.90;;;;;;5029720;28;19913;-73
2022/02/15 10:59:57;;;;;;;;;;;5.40;99.90;;;;;;5029093;28;19921;-73
2022/02/15 11:02:26;;;;;;;;;;;5.50;99.90;;;;;;5030761;28;19925;-74
2022/02/15 11:04:52;;;;;;;;;;;5.40;99.90;;;;;;5030942;28;19922;-73
2022/02/15 11:07:18;;;;;;;;;;;5.40;99.90;;;;;;5030837;28;19913;-73
2022/02/15 11:10:02;;;;;;;;;;;5.60;99.90;;;;;;5030314;28;19924;-73
2022/02/15 11:12:32;;;;;;;;;;;5.60;99.90;;;;;;5030658;28;19913;-73
2022/02/15 11:15:04;;;;;;;;;;;5.60;99.90;;;;;;5029169;28;19909;-73
2022/02/15 11:17:31;;;;;;;;;;;5.30;99.90;;;;;;5029262;28;19909;-73
2022/02/15 11:19:58;;;;;;;;;;;5.20;99.90;;;;;;5030042;28;20043;-73
2022/02/15 11:22:24;;;;;;;;;;;5.30;99.90;;;;;;5029450;28;20015;-73
2022/02/15 11:24:50;;;;;;;;;;;5.40;99.90;;;;;;5030315;28;20004;-73
2022/02/15 11:27:21;;;;;;;;;;;5.40;99.90;;;;;;5030550;28;19916;-73
2022/02/15 11:29:49;;;;;;;;;;;5.50;99.90;;;;;;5028615;28;19917;-73
2022/02/15 11:32:25;;;;;;;;;;;5.50;99.90;;;;;;5030249;28;19935;-74
2022/02/15 11:34:51;;;;;;;;;;;5.50;99.90;;;;;;5027089;28;19913;-73
2022/02/15 11:37:24;;;;;;;;;;;5.50;99.90;;;;;;5030426;28;19971;-73
2022/02/15 11:39:57;;;;;;;;;;;5.40;99.90;;;;;;5024579;28;20006;-74
2022/02/15 11:42:23;;;;;;;;;;;5.40;99.90;;;;;;5028227;28;20015;-73
2022/02/15 11:44:48;;;;;;;;;;;5.30;99.90;;;;;;5030242;28;20383;-73
2022/02/15 11:47:19;;;;;;;;;;;5.40;99.90;;;;;;5030131;28;20392;-73
2022/02/15 11:49:58;;;;;;;;;;;5.60;99.90;;;;;;5028396;28;19909;-73
2022/02/15 11:52:25;;;;;;;;;;;5.70;99.90;;;;;;5030371;28;19961;-73
2022/02/15 11:54:51;;;;;;;;;;;5.70;99.90;;;;;;5029479;28;19921;-73
2022/02/15 11:57:17;;;;;;;;;;;5.90;99.90;;;;;;5030045;28;19959;-73
2022/02/15 11:59:49;;;;;;;;;;;5.90;99.90;;;;;;5029741;28;19917;-72
2022/02/15 12:02:16;;;;;;;;;;;5.80;99.90;;;;;;5030493;28;19925;-74
2022/02/15 12:04:49;;;;;;;;;;;5.80;99.90;;;;;;5012006;28;19925;-74
2022/02/15 12:07:15;;;;;;;;;;;5.60;99.90;;;;;;5029404;28;19984;-74
2022/02/15 12:09:40;;;;;;;;;;;5.60;99.90;;;;;;5033818;28;20051;-75
2022/02/15 12:12:08;;;;;;;;;;;5.40;99.90;;;;;;5033547;28;19999;-74
2022/02/15 12:14:34;;;;;;;;;;;5.10;99.90;;;;;;5034018;28;19909;-74
2022/02/15 12:17:00;;;;;;;;;;;5.10;99.90;;;;;;5033126;28;20010;-74
2022/02/15 12:19:25;;;;;;;;;;;5.30;99.90;;;;;;5033728;28;19909;-74
2022/02/15 12:21:52;;;;;;;;;;;5.30;99.90;;;;;;5032443;28;19913;-74
2022/02/15 12:24:18;;;;;;;;;;;5.40;99.90;;;;;;5033503;28;20375;-74
2022/02/15 12:26:43;;;;;;;;;;;5.30;99.90;;;;;;5031661;28;19920;-72
2022/02/15 12:29:09;;;;;;;;;;;5.20;99.90;;;;;;5033622;28;19920;-74
2022/02/15 12:31:36;;;;;;;;;;;5.10;99.90;;;;;;5031931;28;20316;-75
2022/02/15 12:34:04;;;;;;;;;;;5.20;99.90;;;;;;5015355;28;19920;-73
2022/02/15 12:36:30;;;;;;;;;;;5.10;99.90;;;;;;5034850;28;20004;-73
2022/02/15 12:38:56;;;;;;;;;;;5.20;99.90;;;;;;5033159;28;19938;-73
2022/02/15 12:41:22;;;;;;;;;;;5.20;99.90;;;;;;5033016;28;19913;-73
2022/02/15 12:43:55;;;;;;;;;;;5.20;99.90;;;;;;5031960;28;19917;-73
2022/02/15 12:46:21;;;;;;;;;;;5.40;99.90;;;;;;5033036;28;20377;-73
2022/02/15 12:48:46;;;;;;;;;;;5.50;99.90;;;;;;5031936;28;19909;-73
2022/02/15 12:51:12;;;;;;;;;;;5.30;99.90;;;;;;5032864;28;20495;-73
2022/02/15 12:53:38;;;;;;;;;;;5.30;99.90;;;;;;5032616;28;19909;-73
2022/02/15 12:56:05;;;;;;;;;;;5.40;99.90;;;;;;5032123;28;19961;-73
2022/02/15 12:58:31;;;;;;;;;;;5.40;99.90;;;;;;5033191;28;19909;-73
2022/02/15 13:01:03;;;;;;;;;;;5.30;99.90;;;;;;5031009;28;19917;-74
2022/02/15 13:03:33;;;;;;;;;;;5.30;99.90;;;;;;5028762;28;19909;-73
2022/02/15 13:06:11;;;;;;;;;;;5.20;99.90;;;;;;5032005;28;20352;-74
2022/02/15 13:08:44;;;;;;;;;;;5.30;99.90;;;;;;5032326;28;19909;-75
2022/02/15 13:11:09;;;;;;;;;;;5.30;99.90;;;;;;5030961;28;19917;-74
2022/02/15 13:13:35;;;;;;;;;;;5.40;99.90;;;;;;5031472;28;20300;-74
2022/02/15 13:16:03;;;;;;;;;;;5.60;99.90;;;;;;5030647;28;19913;-75
2022/02/15 13:18:28;;;;;;;;;;;5.50;99.90;;;;;;5031383;28;19981;-74
2022/02/15 13:20:54;;;;;;;;;;;5.30;99.90;;;;;;5030475;28;19928;-74
2022/02/15 13:23:20;;;;;;;;;;;5.40;99.90;;;;;;5032316;28;19968;-74
2022/02/15 13:25:50;;;;;;;;;;;5.40;99.90;;;;;;5032199;28;19910;-74
2022/02/15 13:28:17;;;;;;;;;;;5.30;99.90;;;;;;5031985;28;19913;-74
2022/02/15 13:30:43;;;;;;;;;;;5.30;99.90;;;;;;5032424;28;20354;-74
2022/02/15 13:33:13;;;;;;;;;;;5.30;99.90;;;;;;5030677;28;20002;-75
2022/02/15 13:35:41;;;;;;;;;;;5.30;99.90;;;;;;5030718;28;20001;-74
2022/02/15 13:38:07;;;;;;;;;;;5.40;99.90;;;;;;5030308;28;19995;-74
2022/02/15 13:40:34;;;;;;;;;;;5.40;99.90;;;;;;5030806;28;19913;-74
2022/02/15 13:43:00;;;;;;;;;;;5.40;99.90;;;;;;5030559;28;20003;-73
2022/02/15 13:45:26;;;;;;;;;;;5.40;99.90;;;;;;5032134;28;19999;-73
2022/02/15 13:47:52;;;;;;;;;;;5.40;99.90;;;;;;5025819;28;19917;-75
2022/02/15 13:50:17;;;;;;;;;;;5.40;99.90;;;;;;5030926;28;20003;-74
2022/02/15 13:52:43;;;;;;;;;;;5.30;99.90;;;;;;5031682;28;19948;-73
2022/02/15 13:55:10;;;;;;;;;;;5.20;99.90;;;;;;5031884;28;19913;-73
2022/02/15 13:57:37;;;;;;;;;;;5.20;99.90;;;;;;5031521;28;19909;-73
2022/02/15 14:00:05;;;;;;;;;;;5.10;99.90;;;;;;5031453;28;19917;-73
2022/02/15 14:02:31;;;;;;;;;;;5.20;99.90;;;;;;5030107;28;19948;-73
2022/02/15 14:04:57;;;;;;;;;;;5.40;99.90;;;;;;5030679;28;20151;-72
2022/02/15 14:07:23;;;;;;;;;;;5.60;99.90;;;;;;5031363;28;19909;-73
2022/02/15 14:09:49;;;;;;;;;;;5.70;99.90;;;;;;5031826;28;19909;-73
2022/02/15 14:12:18;;;;;;;;;;;5.70;99.90;;;;;;5029721;28;20324;-73
2022/02/15 14:14:44;;;;;;;;;;;5.50;99.90;;;;;;5031049;28;19948;-73
2022/02/15 14:19:54;;;;;;;;;;;5.50;99.90;;;;;;5031621;28;19923;-73
2022/02/15 14:22:20;;;;;;;;;;;5.40;99.90;;;;;;5029249;28;19909;-73
2022/02/15 14:24:45;;;;;;;;;;;5.30;99.90;;;;;;5031485;28;20335;-74
2022/02/15 14:27:11;;;;;;;;;;;5.20;99.90;;;;;;5030608;28;19913;-74
2022/02/15 14:29:36;;;;;;;;;;;5.30;99.90;;;;;;5029766;28;20296;-74
2022/02/15 14:32:02;;;;;;;;;;;5.30;99.90;;;;;;5029329;28;19909;-74
2022/02/15 14:34:28;;;;;;;;;;;5.30;99.90;;;;;;5029751;28;19913;-74